createdAt,value
2016-07-20T00:00:47.216Z,1007.48
2016-07-20T00:01:47.198Z,1007.46
2016-07-20T00:02:47.187Z,1007.47
2016-07-20T00:03:47.168Z,1007.47
2016-07-20T00:04:47.151Z,1007.45
2016-07-20T00:05:47.135Z,1007.46
2016-07-20T00:06:47.119Z,1007.46
2016-07-20T00:07:47.103Z,1007.47
2016-07-20T00:08:47.086Z,1007.46
2016-07-20T00:09:47.071Z,1007.48
2016-07-20T00:10:47.054Z,1007.5
2016-07-20T00:11:47.038Z,1007.5
2016-07-20T00:12:47.028Z,1007.48
2016-07-20T00:13:47.005Z,1007.49
2016-07-20T00:14:46.990Z,1007.45
2016-07-20T00:15:46.974Z,1007.46
2016-07-20T00:16:46.957Z,1007.42
2016-07-20T00:17:46.940Z,1007.41
2016-07-20T00:18:46.924Z,1007.42
2016-07-20T00:19:46.907Z,1007.42
2016-07-20T00:20:46.891Z,1007.41
2016-07-20T00:21:46.875Z,1007.4
2016-07-20T00:22:46.860Z,1007.4
2016-07-20T00:23:46.841Z,1007.42
2016-07-20T00:24:46.831Z,1007.39
2016-07-20T00:25:46.810Z,1007.38
2016-07-20T00:26:46.793Z,1007.39
2016-07-20T00:27:46.776Z,1007.41
2016-07-20T00:28:46.760Z,1007.41
2016-07-20T00:29:46.743Z,1007.43
2016-07-20T00:30:46.727Z,1007.4
2016-07-20T00:31:46.711Z,1007.47
2016-07-20T00:32:46.695Z,1007.45
2016-07-20T00:33:46.679Z,1007.47
2016-07-20T00:34:46.662Z,1007.44
2016-07-20T00:35:46.645Z,1007.48
2016-07-20T00:36:46.633Z,1007.44
2016-07-20T00:37:46.612Z,1007.44
2016-07-20T00:38:46.596Z,1007.49
2016-07-20T00:39:46.579Z,1007.48
2016-07-20T00:40:46.563Z,1007.47
2016-07-20T00:41:46.545Z,1007.47
2016-07-20T00:42:46.529Z,1007.45
2016-07-20T00:43:46.512Z,1007.44
2016-07-20T00:44:46.497Z,1007.41
2016-07-20T00:45:46.479Z,1007.43
2016-07-20T00:46:46.462Z,1007.42
2016-07-20T00:47:46.446Z,1007.39
2016-07-20T00:48:46.430Z,1007.4
2016-07-20T00:49:46.412Z,1007.37
2016-07-20T00:50:46.396Z,1007.42
2016-07-20T00:51:46.380Z,1007.37
2016-07-20T00:52:46.362Z,1007.4
2016-07-20T00:53:46.346Z,1007.34
2016-07-20T00:54:46.329Z,1007.35
2016-07-20T00:55:46.311Z,1007.35
2016-07-20T00:56:46.294Z,1007.36
2016-07-20T00:57:46.278Z,1007.36
2016-07-20T00:58:46.261Z,1007.35
2016-07-20T00:59:46.245Z,1007.35
2016-07-20T01:00:46.227Z,1007.33
2016-07-20T01:01:46.211Z,1007.31
2016-07-20T01:02:46.194Z,1007.3
2016-07-20T01:03:46.177Z,1007.33
2016-07-20T01:04:46.160Z,1007.35
2016-07-20T01:05:46.144Z,1007.32
2016-07-20T01:06:46.127Z,1007.3
2016-07-20T01:07:46.110Z,1007.32
2016-07-20T01:08:46.092Z,1007.32
2016-07-20T01:09:46.076Z,1007.31
2016-07-20T01:10:46.059Z,1007.28
2016-07-20T01:11:46.043Z,1007.28
2016-07-20T01:12:46.026Z,1007.28
2016-07-20T01:13:46.010Z,1007.25
2016-07-20T01:14:45.992Z,1007.24
2016-07-20T01:15:45.974Z,1007.22
2016-07-20T01:16:45.958Z,1007.2
2016-07-20T01:17:45.942Z,1007.17
2016-07-20T01:18:45.923Z,1007.2
2016-07-20T01:19:45.907Z,1007.19
2016-07-20T01:20:45.890Z,1007.14
2016-07-20T01:21:45.873Z,1007.2
2016-07-20T01:22:45.856Z,1007.15
2016-07-20T01:23:45.839Z,1007.18
2016-07-20T01:24:45.822Z,1007.2
2016-07-20T01:25:45.804Z,1007.2
2016-07-20T01:26:45.788Z,1007.18
2016-07-20T01:27:45.770Z,1007.17
2016-07-20T01:28:45.754Z,1007.17
2016-07-20T01:29:45.736Z,1007.15
2016-07-20T01:30:45.719Z,1007.1
2016-07-20T01:31:45.703Z,1007.09
2016-07-20T01:32:45.684Z,1007.12
2016-07-20T01:33:45.668Z,1007.1
2016-07-20T01:34:45.651Z,1007.09
2016-07-20T01:35:45.634Z,1007.07
2016-07-20T01:36:45.617Z,1007.03
2016-07-20T01:37:45.600Z,1007.04
2016-07-20T01:38:45.583Z,1006.99
2016-07-20T01:39:45.565Z,1007.04
2016-07-20T01:40:45.547Z,1007.01
2016-07-20T01:41:45.531Z,1006.98
2016-07-20T01:42:45.514Z,1007.02
2016-07-20T01:43:45.496Z,1007.02
2016-07-20T01:44:45.479Z,1007.02
2016-07-20T01:45:45.463Z,1007.02
2016-07-20T01:46:45.446Z,1007
2016-07-20T01:47:45.427Z,1007.02
2016-07-20T01:48:45.410Z,1007
2016-07-20T01:49:45.393Z,1006.98
2016-07-20T01:50:45.376Z,1007
2016-07-20T01:51:45.359Z,1006.99
2016-07-20T01:52:45.342Z,1006.98
2016-07-20T01:53:45.324Z,1006.97
2016-07-20T01:54:45.306Z,1006.94
2016-07-20T01:55:45.289Z,1006.91
2016-07-20T01:56:45.271Z,1006.91
2016-07-20T01:57:45.255Z,1006.9
2016-07-20T01:58:45.237Z,1006.89
2016-07-20T01:59:45.219Z,1006.9
2016-07-20T02:00:45.203Z,1006.87
2016-07-20T02:01:45.185Z,1006.86
2016-07-20T02:02:45.168Z,1006.88
2016-07-20T02:03:45.150Z,1006.88
2016-07-20T02:04:45.132Z,1006.91
2016-07-20T02:05:45.115Z,1006.91
2016-07-20T02:06:45.097Z,1006.87
2016-07-20T02:07:45.081Z,1006.87
2016-07-20T02:08:45.063Z,1006.84
2016-07-20T02:09:45.045Z,1006.88
2016-07-20T02:10:45.035Z,1006.85
2016-07-20T02:11:45.010Z,1006.87
2016-07-20T02:12:44.993Z,1006.86
2016-07-20T02:13:44.975Z,1006.85
2016-07-20T02:14:44.958Z,1006.85
2016-07-20T02:15:44.941Z,1006.84
2016-07-20T02:16:44.922Z,1006.81
2016-07-20T02:17:44.905Z,1006.85
2016-07-20T02:18:44.887Z,1006.83
2016-07-20T02:19:44.870Z,1006.87
2016-07-20T02:20:44.853Z,1006.84
2016-07-20T02:21:44.835Z,1006.85
2016-07-20T02:22:44.818Z,1006.82
2016-07-20T02:23:44.801Z,1006.83
2016-07-20T02:24:44.781Z,1006.82
2016-07-20T02:25:44.765Z,1006.84
2016-07-20T02:26:44.747Z,1006.8
2016-07-20T02:27:44.728Z,1006.77
2016-07-20T02:28:44.712Z,1006.79
2016-07-20T02:29:44.693Z,1006.74
2016-07-20T02:30:44.677Z,1006.72
2016-07-20T02:31:44.657Z,1006.73
2016-07-20T02:32:44.640Z,1006.69
2016-07-20T02:33:44.623Z,1006.69
2016-07-20T02:34:44.605Z,1006.68
2016-07-20T02:35:44.587Z,1006.66
2016-07-20T02:36:44.575Z,1006.67
2016-07-20T02:37:44.552Z,1006.67
2016-07-20T02:38:44.535Z,1006.68
2016-07-20T02:39:44.517Z,1006.63
2016-07-20T02:40:44.500Z,1006.63
2016-07-20T02:41:44.482Z,1006.61
2016-07-20T02:42:44.463Z,1006.61
2016-07-20T02:43:44.446Z,1006.58
2016-07-20T02:44:44.428Z,1006.59
2016-07-20T02:45:44.410Z,1006.57
2016-07-20T02:46:44.393Z,1006.58
2016-07-20T02:47:44.375Z,1006.55
2016-07-20T02:48:44.358Z,1006.56
2016-07-20T02:49:44.339Z,1006.55
2016-07-20T02:50:44.322Z,1006.53
2016-07-20T02:51:44.305Z,1006.54
2016-07-20T02:52:44.286Z,1006.54
2016-07-20T02:53:44.268Z,1006.54
2016-07-20T02:54:44.250Z,1006.54
2016-07-20T02:55:44.233Z,1006.51
2016-07-20T02:56:44.214Z,1006.54
2016-07-20T02:57:44.196Z,1006.54
2016-07-20T02:58:44.179Z,1006.5
2016-07-20T02:59:44.161Z,1006.5
2016-07-20T03:00:44.143Z,1006.49
2016-07-20T03:01:44.126Z,1006.51
2016-07-20T03:02:44.107Z,1006.49
2016-07-20T03:03:44.090Z,1006.47
2016-07-20T03:04:44.072Z,1006.51
2016-07-20T03:05:44.054Z,1006.49
2016-07-20T03:06:44.036Z,1006.5
2016-07-20T03:07:44.017Z,1006.48
2016-07-20T03:08:44.000Z,1006.48
2016-07-20T03:09:43.982Z,1006.49
2016-07-20T03:10:43.965Z,1006.48
2016-07-20T03:11:43.946Z,1006.48
2016-07-20T03:12:43.927Z,1006.47
2016-07-20T03:13:43.910Z,1006.5
2016-07-20T03:14:43.892Z,1006.48
2016-07-20T03:15:43.874Z,1006.47
2016-07-20T03:16:43.856Z,1006.47
2016-07-20T03:17:43.838Z,1006.45
2016-07-20T03:18:43.820Z,1006.42
2016-07-20T03:19:43.803Z,1006.43
2016-07-20T03:20:43.783Z,1006.41
2016-07-20T03:21:43.766Z,1006.42
2016-07-20T03:22:43.749Z,1006.43
2016-07-20T03:23:43.730Z,1006.43
2016-07-20T03:24:43.712Z,1006.39
2016-07-20T03:25:43.694Z,1006.4
2016-07-20T03:26:43.675Z,1006.4
2016-07-20T03:27:43.657Z,1006.39
2016-07-20T03:28:43.641Z,1006.39
2016-07-20T03:29:43.621Z,1006.39
2016-07-20T03:30:43.604Z,1006.44
2016-07-20T03:31:43.587Z,1006.41
2016-07-20T03:32:43.569Z,1006.45
2016-07-20T03:33:43.549Z,1006.45
2016-07-20T03:34:43.532Z,1006.42
2016-07-20T03:35:43.514Z,1006.45
2016-07-20T03:36:43.495Z,1006.42
2016-07-20T03:37:43.478Z,1006.46
2016-07-20T03:38:43.460Z,1006.42
2016-07-20T03:39:43.442Z,1006.39
2016-07-20T03:40:43.424Z,1006.4
2016-07-20T03:41:43.405Z,1006.39
2016-07-20T03:42:43.388Z,1006.4
2016-07-20T03:43:43.371Z,1006.42
2016-07-20T03:44:43.351Z,1006.42
2016-07-20T03:45:43.334Z,1006.39
2016-07-20T03:46:43.315Z,1006.41
2016-07-20T03:47:43.297Z,1006.39
2016-07-20T03:48:43.279Z,1006.41
2016-07-20T03:49:43.262Z,1006.38
2016-07-20T03:50:43.244Z,1006.41
2016-07-20T03:51:43.225Z,1006.39
2016-07-20T03:52:43.207Z,1006.4
2016-07-20T03:53:43.190Z,1006.4
2016-07-20T03:54:43.172Z,1006.42
2016-07-20T03:55:43.153Z,1006.42
2016-07-20T03:56:43.136Z,1006.43
2016-07-20T03:57:43.118Z,1006.41
2016-07-20T03:58:43.100Z,1006.39
2016-07-20T03:59:43.082Z,1006.41
2016-07-20T04:00:43.063Z,1006.38
2016-07-20T04:01:43.047Z,1006.39
2016-07-20T04:02:43.033Z,1006.43
2016-07-20T04:03:43.009Z,1006.39
2016-07-20T04:04:42.992Z,1006.38
2016-07-20T04:05:42.974Z,1006.4
2016-07-20T04:06:42.956Z,1006.4
2016-07-20T04:07:42.938Z,1006.39
2016-07-20T04:08:42.921Z,1006.4
2016-07-20T04:09:42.904Z,1006.35
2016-07-20T04:10:42.884Z,1006.34
2016-07-20T04:11:42.867Z,1006.35
2016-07-20T04:12:42.850Z,1006.36
2016-07-20T04:13:42.830Z,1006.33
2016-07-20T04:14:42.812Z,1006.33
2016-07-20T04:15:42.795Z,1006.36
2016-07-20T04:16:42.779Z,1006.38
2016-07-20T04:17:42.760Z,1006.37
2016-07-20T04:18:42.743Z,1006.38
2016-07-20T04:19:42.724Z,1006.35
2016-07-20T04:20:42.707Z,1006.36
2016-07-20T04:21:42.690Z,1006.36
2016-07-20T04:22:42.672Z,1006.31
2016-07-20T04:23:42.655Z,1006.33
2016-07-20T04:24:42.637Z,1006.31
2016-07-20T04:25:42.618Z,1006.33
2016-07-20T04:26:42.602Z,1006.29
2016-07-20T04:27:42.584Z,1006.31
2016-07-20T04:28:42.566Z,1006.3
2016-07-20T04:29:42.548Z,1006.29
2016-07-20T04:30:42.530Z,1006.25
2016-07-20T04:31:42.513Z,1006.23
2016-07-20T04:32:42.495Z,1006.22
2016-07-20T04:33:42.478Z,1006.2
2016-07-20T04:34:42.460Z,1006.18
2016-07-20T04:35:42.442Z,1006.21
2016-07-20T04:36:42.424Z,1006.16
2016-07-20T04:37:42.407Z,1006.2
2016-07-20T04:38:42.389Z,1006.15
2016-07-20T04:39:42.372Z,1006.16
2016-07-20T04:40:42.354Z,1006.18
2016-07-20T04:41:42.337Z,1006.18
2016-07-20T04:42:42.318Z,1006.16
2016-07-20T04:43:42.301Z,1006.15
2016-07-20T04:44:42.284Z,1006.14
2016-07-20T04:45:42.266Z,1006.1
2016-07-20T04:46:42.249Z,1006.12
2016-07-20T04:47:42.231Z,1006.11
2016-07-20T04:48:42.214Z,1006.12
2016-07-20T04:49:42.196Z,1006.11
2016-07-20T04:50:42.179Z,1006.16
2016-07-20T04:51:42.271Z,1006.11
2016-07-20T04:52:42.144Z,1006.07
2016-07-20T04:53:42.125Z,1006.11
2016-07-20T04:54:42.146Z,1006.06
2016-07-20T04:55:42.092Z,1006.12
2016-07-20T04:56:42.074Z,1006.08
2016-07-20T04:57:42.057Z,1006.1
2016-07-20T04:58:42.040Z,1006.13
2016-07-20T04:59:42.062Z,1006.08
2016-07-20T05:00:42.006Z,1006.05
2016-07-20T05:01:41.992Z,1006.06
2016-07-20T05:02:41.971Z,1006.07
2016-07-20T05:03:41.954Z,1006.07
2016-07-20T05:04:41.987Z,1006.09
2016-07-20T05:05:41.920Z,1006.04
2016-07-20T05:06:41.902Z,1006.03
2016-07-20T05:07:41.886Z,1006.03
2016-07-20T05:08:41.868Z,1006.02
2016-07-20T05:09:41.851Z,1006.02
2016-07-20T05:10:41.834Z,1006.03
2016-07-20T05:11:41.816Z,1006.02
2016-07-20T05:12:41.800Z,1006.07
2016-07-20T05:13:41.782Z,1006
2016-07-20T05:14:41.766Z,1006.03
2016-07-20T05:15:41.749Z,1006
2016-07-20T05:16:41.732Z,1006.03
2016-07-20T05:17:41.716Z,1006.01
2016-07-20T05:18:41.716Z,1006.01
2016-07-20T05:19:41.681Z,1006.02
2016-07-20T05:20:41.664Z,1006.04
2016-07-20T05:21:41.648Z,1006.01
2016-07-20T05:22:41.631Z,1006.03
2016-07-20T05:23:41.615Z,1006.03
2016-07-20T05:24:41.598Z,1006.03
2016-07-20T05:25:41.582Z,1006.06
2016-07-20T05:26:41.564Z,1006.04
2016-07-20T05:27:41.549Z,1006
2016-07-20T05:28:41.532Z,1006.02
2016-07-20T05:29:41.517Z,1006.01
2016-07-20T05:30:41.499Z,1006.04
2016-07-20T05:31:41.487Z,1005.97
2016-07-20T05:32:41.467Z,1005.95
2016-07-20T05:33:41.474Z,1005.91
2016-07-20T05:34:41.434Z,1005.94
2016-07-20T05:35:41.418Z,1005.93
2016-07-20T05:36:41.408Z,1005.91
2016-07-20T05:37:41.387Z,1005.92
2016-07-20T05:38:41.371Z,1005.88
2016-07-20T05:39:41.355Z,1005.9
2016-07-20T05:40:41.384Z,1005.91
2016-07-20T05:41:41.322Z,1005.85
2016-07-20T05:42:41.308Z,1005.89
2016-07-20T05:43:41.293Z,1005.9
2016-07-20T05:44:41.283Z,1005.83
2016-07-20T05:45:41.312Z,1005.83
2016-07-20T05:46:41.247Z,1005.83
2016-07-20T05:47:41.232Z,1005.8
2016-07-20T05:48:41.355Z,1005.8
2016-07-20T05:49:41.225Z,1005.75
2016-07-20T05:50:41.187Z,1005.69
2016-07-20T05:51:41.172Z,1005.72
2016-07-20T05:52:41.158Z,1005.68
2016-07-20T05:53:41.143Z,1005.69
2016-07-20T05:54:41.129Z,1005.69
2016-07-20T05:55:41.151Z,1005.7
2016-07-20T05:56:41.101Z,1005.71
2016-07-20T05:57:41.088Z,1005.72
2016-07-20T05:58:41.074Z,1005.68
2016-07-20T05:59:41.059Z,1005.71
2016-07-20T06:00:41.046Z,1005.68
2016-07-20T06:01:41.032Z,1005.71
2016-07-20T06:02:41.018Z,1005.71
2016-07-20T06:03:41.108Z,1005.72
2016-07-20T06:04:41.015Z,1005.68
2016-07-20T06:05:40.978Z,1005.69
2016-07-20T06:06:40.965Z,1005.72
2016-07-20T06:07:40.951Z,1005.66
2016-07-20T06:08:41.009Z,1005.69
2016-07-20T06:09:40.927Z,1005.68
2016-07-20T06:10:40.913Z,1005.7
2016-07-20T06:11:40.901Z,1005.65
2016-07-20T06:12:40.888Z,1005.66
2016-07-20T06:13:40.876Z,1005.66
2016-07-20T06:14:40.862Z,1005.66
2016-07-20T06:15:40.852Z,1005.65
2016-07-20T06:16:40.839Z,1005.62
2016-07-20T06:17:40.826Z,1005.63
2016-07-20T06:18:40.816Z,1005.58
2016-07-20T06:19:40.804Z,1005.56
2016-07-20T06:20:40.797Z,1005.57
2016-07-20T06:21:40.781Z,1005.57
2016-07-20T06:22:40.770Z,1005.57
2016-07-20T06:23:40.758Z,1005.54
2016-07-20T06:24:40.748Z,1005.51
2016-07-20T06:25:40.736Z,1005.55
2016-07-20T06:26:40.725Z,1005.52
2016-07-20T06:27:40.716Z,1005.54
2016-07-20T06:28:40.704Z,1005.53
2016-07-20T06:29:40.694Z,1005.58
2016-07-20T06:30:40.734Z,1005.57
2016-07-20T06:31:40.674Z,1005.59
2016-07-20T06:32:40.665Z,1005.61
2016-07-20T06:33:40.654Z,1005.55
2016-07-20T06:34:40.644Z,1005.6
2016-07-20T06:35:40.635Z,1005.57
2016-07-20T06:36:40.680Z,1005.58
2016-07-20T06:37:40.616Z,1005.52
2016-07-20T06:38:40.608Z,1005.6
2016-07-20T06:39:40.597Z,1005.57
2016-07-20T06:40:40.589Z,1005.5
2016-07-20T06:41:40.579Z,1005.52
2016-07-20T06:42:40.885Z,1005.57
2016-07-20T06:43:40.568Z,1005.55
2016-07-20T06:44:40.554Z,1005.49
2016-07-20T06:45:40.599Z,1005.5
2016-07-20T06:46:40.539Z,1005.5
2016-07-20T06:47:40.529Z,1005.5
2016-07-20T06:48:40.521Z,1005.5
2016-07-20T06:49:40.514Z,1005.48
2016-07-20T06:50:40.506Z,1005.48
2016-07-20T06:51:40.547Z,1005.49
2016-07-20T06:52:40.591Z,1005.47
2016-07-20T06:53:40.484Z,1005.5
2016-07-20T06:54:40.499Z,1005.49
2016-07-20T06:55:40.647Z,1005.49
2016-07-20T06:56:40.461Z,1005.47
2016-07-20T06:57:40.455Z,1005.46
2016-07-20T06:58:40.447Z,1005.46
2016-07-20T06:59:40.439Z,1005.5
2016-07-20T07:00:40.434Z,1005.45
2016-07-20T07:01:40.425Z,1005.49
2016-07-20T07:02:40.420Z,1005.49
2016-07-20T07:03:40.413Z,1005.44
2016-07-20T07:04:40.510Z,1005.45
2016-07-20T07:05:40.399Z,1005.44
2016-07-20T07:06:40.394Z,1005.45
2016-07-20T07:07:40.387Z,1005.39
2016-07-20T07:08:40.383Z,1005.39
2016-07-20T07:09:40.396Z,1005.38
2016-07-20T07:10:40.367Z,1005.37
2016-07-20T07:11:40.400Z,1005.34
2016-07-20T07:12:40.356Z,1005.36
2016-07-20T07:13:40.406Z,1005.33
2016-07-20T07:14:40.345Z,1005.35
2016-07-20T07:15:40.580Z,1005.34
2016-07-20T07:16:40.594Z,1005.34
2016-07-20T07:17:40.516Z,1005.36
2016-07-20T07:18:40.359Z,1005.3
2016-07-20T07:19:40.599Z,1005.28
2016-07-20T07:20:40.412Z,1005.29
2016-07-20T07:21:40.306Z,1005.28
2016-07-20T07:22:40.300Z,1005.26
2016-07-20T07:23:40.294Z,1005.28
2016-07-20T07:24:40.289Z,1005.26
2016-07-20T07:25:40.282Z,1005.19
2016-07-20T07:26:40.334Z,1005.2
2016-07-20T07:27:40.272Z,1005.18
2016-07-20T07:28:40.266Z,1005.18
2016-07-20T07:29:40.262Z,1005.19
2016-07-20T07:30:40.257Z,1005.16
2016-07-20T07:31:40.253Z,1005.18
2016-07-20T07:32:40.248Z,1005.16
2016-07-20T07:33:40.376Z,1005.1
2016-07-20T07:34:40.238Z,1005.12
2016-07-20T07:35:40.239Z,1005.09
2016-07-20T07:36:40.229Z,1005.04
2016-07-20T07:37:40.224Z,1005.02
2016-07-20T07:38:40.218Z,1005.02
2016-07-20T07:39:40.464Z,1005.05
2016-07-20T07:40:40.446Z,1005.06
2016-07-20T07:41:40.415Z,1005
2016-07-20T07:42:40.210Z,1005
2016-07-20T07:43:40.277Z,1005.02
2016-07-20T07:44:40.191Z,1005.02
2016-07-20T07:45:40.186Z,1005
2016-07-20T07:46:40.185Z,1005.02
2016-07-20T07:47:40.179Z,1005.02
2016-07-20T07:48:40.174Z,1005.01
2016-07-20T07:49:40.169Z,1005.02
2016-07-20T07:50:40.165Z,1005.02
2016-07-20T07:51:40.161Z,1005
2016-07-20T07:52:40.156Z,1005.04
2016-07-20T07:53:40.153Z,1005.01
2016-07-20T07:54:40.155Z,1005.01
2016-07-20T07:55:40.146Z,1005.03
2016-07-20T07:56:40.143Z,1004.96
2016-07-20T07:57:40.138Z,1004.96
2016-07-20T07:58:40.136Z,1004.98
2016-07-20T07:59:40.132Z,1004.96
2016-07-20T08:00:40.129Z,1004.95
2016-07-20T08:01:40.126Z,1004.96
2016-07-20T08:02:40.124Z,1004.97
2016-07-20T08:03:40.182Z,1004.98
2016-07-20T08:04:40.118Z,1005.01
2016-07-20T08:05:40.114Z,1004.97
2016-07-20T08:06:40.113Z,1004.97
2016-07-20T08:07:40.109Z,1004.98
2016-07-20T08:08:40.212Z,1004.99
2016-07-20T08:09:40.109Z,1004.97
2016-07-20T08:10:40.102Z,1004.91
2016-07-20T08:11:40.099Z,1004.95
2016-07-20T08:12:40.097Z,1004.94
2016-07-20T08:13:40.095Z,1004.9
2016-07-20T08:14:40.092Z,1004.92
2016-07-20T08:15:40.123Z,1004.92
2016-07-20T08:16:40.100Z,1004.9
2016-07-20T08:17:40.293Z,1004.88
2016-07-20T08:18:40.086Z,1004.86
2016-07-20T08:19:40.084Z,1004.85
2016-07-20T08:20:40.287Z,1004.87
2016-07-20T08:21:40.081Z,1004.84
2016-07-20T08:22:40.079Z,1004.83
2016-07-20T08:23:40.078Z,1004.77
2016-07-20T08:24:40.265Z,1004.79
2016-07-20T08:25:40.128Z,1004.77
2016-07-20T08:26:40.129Z,1004.74
2016-07-20T08:27:40.248Z,1004.7
2016-07-20T08:28:40.085Z,1004.72
2016-07-20T08:29:40.069Z,1004.7
2016-07-20T08:30:40.086Z,1004.68
2016-07-20T08:31:40.068Z,1004.71
2016-07-20T08:32:40.066Z,1004.68
2016-07-20T08:33:40.073Z,1004.65
2016-07-20T08:34:40.064Z,1004.76
2016-07-20T08:35:40.202Z,1004.68
2016-07-20T08:36:40.062Z,1004.68
2016-07-20T08:37:40.234Z,1004.7
2016-07-20T08:38:40.402Z,1004.68
2016-07-20T08:39:40.059Z,1004.71
2016-07-20T08:40:40.147Z,1004.71
2016-07-20T08:41:40.285Z,1004.57
2016-07-20T08:42:40.324Z,1004.69
2016-07-20T08:43:40.252Z,1004.65
2016-07-20T08:44:40.237Z,1004.66
2016-07-20T08:45:40.214Z,1004.66
2016-07-20T08:46:40.053Z,1004.63
2016-07-20T08:47:40.051Z,1004.7
2016-07-20T08:48:40.075Z,1004.66
2016-07-20T08:49:40.061Z,1004.65
2016-07-20T08:50:40.253Z,1004.68
2016-07-20T08:51:40.051Z,1004.6
2016-07-20T08:52:40.255Z,1004.62
2016-07-20T08:53:40.051Z,1004.61
2016-07-20T08:54:40.193Z,1004.66
2016-07-20T08:55:40.154Z,1004.61
2016-07-20T08:56:40.080Z,1004.58
2016-07-20T08:57:40.052Z,1004.6
2016-07-20T08:58:40.201Z,1004.52
2016-07-20T08:59:40.201Z,1004.49
2016-07-20T09:00:40.054Z,1004.48
2016-07-20T09:01:40.167Z,1004.44
2016-07-20T09:02:40.273Z,1004.46
2016-07-20T09:03:40.057Z,1004.43
2016-07-20T09:04:40.058Z,1004.46
2016-07-20T09:05:40.060Z,1004.46
2016-07-20T09:06:40.137Z,1004.44
2016-07-20T09:07:40.062Z,1004.41
2016-07-20T09:08:40.062Z,1004.39
2016-07-20T09:09:40.062Z,1004.36
2016-07-20T09:10:40.085Z,1004.4
2016-07-20T09:11:40.064Z,1004.38
2016-07-20T09:12:40.067Z,1004.36
2016-07-20T09:13:40.401Z,1004.32
2016-07-20T09:14:40.178Z,1004.27
2016-07-20T09:15:40.071Z,1004.29
2016-07-20T09:16:40.133Z,1004.31
2016-07-20T09:17:40.071Z,1004.27
2016-07-20T09:18:40.073Z,1004.34
2016-07-20T09:19:40.074Z,1004.32
2016-07-20T09:20:40.075Z,1004.24
2016-07-20T09:21:40.082Z,1004.25
2016-07-20T09:22:40.156Z,1004.22
2016-07-20T09:23:40.137Z,1004.2
2016-07-20T09:24:40.238Z,1004.21
2016-07-20T09:25:40.309Z,1004.18
2016-07-20T09:26:40.198Z,1004.17
2016-07-20T09:27:40.083Z,1004.13
2016-07-20T09:28:40.086Z,1004.13
2016-07-20T09:29:40.106Z,1004.13
2016-07-20T09:30:40.179Z,1004.16
2016-07-20T09:31:40.351Z,1004.11
2016-07-20T09:32:40.286Z,1004.07
2016-07-20T09:33:40.292Z,1004.09
2016-07-20T09:34:40.261Z,1004.11
2016-07-20T09:35:40.727Z,1004.08
2016-07-20T09:36:40.395Z,1004.06
2016-07-20T09:37:40.336Z,1004.02
2016-07-20T09:38:40.425Z,1004.06
2016-07-20T09:39:40.386Z,1003.99
2016-07-20T09:40:40.104Z,1003.99
2016-07-20T09:41:40.106Z,1004
2016-07-20T09:42:40.132Z,1003.97
2016-07-20T09:43:40.109Z,1003.96
2016-07-20T09:44:40.112Z,1003.98
2016-07-20T09:45:40.134Z,1004.03
2016-07-20T09:46:40.254Z,1003.98
2016-07-20T09:47:40.156Z,1003.99
2016-07-20T09:48:40.121Z,1003.99
2016-07-20T09:49:40.123Z,1003.99
2016-07-20T09:50:40.124Z,1003.95
2016-07-20T09:51:40.127Z,1003.94
2016-07-20T09:52:40.245Z,1003.92
2016-07-20T09:53:40.229Z,1003.88
2016-07-20T09:54:40.135Z,1003.86
2016-07-20T09:55:40.137Z,1003.88
2016-07-20T09:56:40.142Z,1003.86
2016-07-20T09:57:40.142Z,1003.86
2016-07-20T09:58:40.144Z,1003.89
2016-07-20T09:59:40.148Z,1003.85
2016-07-20T10:00:40.210Z,1003.85
2016-07-20T10:01:40.211Z,1003.8
2016-07-20T10:02:40.420Z,1003.78
2016-07-20T10:03:40.222Z,1003.8
2016-07-20T10:04:40.292Z,1003.8
2016-07-20T10:05:40.199Z,1003.81
2016-07-20T10:06:40.418Z,1003.8
2016-07-20T10:07:40.199Z,1003.83
2016-07-20T10:08:40.175Z,1003.82
2016-07-20T10:09:40.218Z,1003.82
2016-07-20T10:10:40.206Z,1003.78
2016-07-20T10:11:40.313Z,1003.79
2016-07-20T10:12:40.189Z,1003.74
2016-07-20T10:13:40.433Z,1003.7
2016-07-20T10:14:40.290Z,1003.75
2016-07-20T10:15:40.428Z,1003.76
2016-07-20T10:16:40.203Z,1003.77
2016-07-20T10:17:40.213Z,1003.7
2016-07-20T10:18:40.210Z,1003.69
2016-07-20T10:19:40.219Z,1003.69
2016-07-20T10:20:40.235Z,1003.68
2016-07-20T10:21:40.222Z,1003.65
2016-07-20T10:22:40.282Z,1003.65
2016-07-20T10:23:40.347Z,1003.57
2016-07-20T10:24:40.252Z,1003.63
2016-07-20T10:25:40.236Z,1003.62
2016-07-20T10:26:40.349Z,1003.57
2016-07-20T10:27:40.285Z,1003.57
2016-07-20T10:28:40.394Z,1003.6
2016-07-20T10:29:40.252Z,1003.61
2016-07-20T10:30:40.297Z,1003.61
2016-07-20T10:31:40.258Z,1003.62
2016-07-20T10:32:40.262Z,1003.64
2016-07-20T10:33:40.334Z,1003.62
2016-07-20T10:34:40.268Z,1003.53
2016-07-20T10:35:40.271Z,1003.58
2016-07-20T10:36:40.523Z,1003.53
2016-07-20T10:37:40.277Z,1003.57
2016-07-20T10:38:40.550Z,1003.57
2016-07-20T10:39:40.283Z,1003.55
2016-07-20T10:40:40.290Z,1003.53
2016-07-20T10:41:40.289Z,1003.48
2016-07-20T10:42:40.291Z,1003.52
2016-07-20T10:43:40.439Z,1003.53
2016-07-20T10:44:40.298Z,1003.48
2016-07-20T10:45:40.429Z,1003.45
2016-07-20T10:46:40.299Z,1003.49
2016-07-20T10:47:40.302Z,1003.4
2016-07-20T10:48:40.303Z,1003.47
2016-07-20T10:49:40.511Z,1003.45
2016-07-20T10:50:40.360Z,1003.46
2016-07-20T10:51:40.320Z,1003.47
2016-07-20T10:52:40.313Z,1003.47
2016-07-20T10:53:40.316Z,1003.42
2016-07-20T10:54:40.593Z,1003.39
2016-07-20T10:55:40.381Z,1003.44
2016-07-20T10:56:40.436Z,1003.38
2016-07-20T10:57:40.329Z,1003.4
2016-07-20T10:58:40.345Z,1003.39
2016-07-20T10:59:40.336Z,1003.38
2016-07-20T11:00:40.341Z,1003.34
2016-07-20T11:01:40.344Z,1003.36
2016-07-20T11:02:40.348Z,1003.4
2016-07-20T11:03:40.352Z,1003.38
2016-07-20T11:04:40.369Z,1003.4
2016-07-20T11:05:40.366Z,1003.4
2016-07-20T11:06:40.398Z,1003.37
2016-07-20T11:07:40.549Z,1003.3
2016-07-20T11:08:40.374Z,1003.35
2016-07-20T11:09:40.379Z,1003.28
2016-07-20T11:10:40.457Z,1003.28
2016-07-20T11:11:40.397Z,1003.28
2016-07-20T11:12:40.392Z,1003.25
2016-07-20T11:13:40.444Z,1003.24
2016-07-20T11:14:40.400Z,1003.23
2016-07-20T11:15:40.573Z,1003.29
2016-07-20T11:16:40.637Z,1003.27
2016-07-20T11:17:40.605Z,1003.28
2016-07-20T11:18:40.721Z,1003.25
2016-07-20T11:19:40.596Z,1003.24
2016-07-20T11:20:40.790Z,1003.25
2016-07-20T11:21:40.619Z,1003.21
2016-07-20T11:22:40.440Z,1003.19
2016-07-20T11:23:40.505Z,1003.22
2016-07-20T11:24:40.737Z,1003.19
2016-07-20T11:25:40.609Z,1003.15
2016-07-20T11:26:40.460Z,1003.16
2016-07-20T11:27:40.523Z,1003.1
2016-07-20T11:28:40.492Z,1003.08
2016-07-20T11:29:40.746Z,1003.14
2016-07-20T11:30:40.481Z,1003.12
2016-07-20T11:31:40.538Z,1003.09
2016-07-20T11:32:40.491Z,1003.14
2016-07-20T11:33:40.531Z,1003.1
2016-07-20T11:34:40.760Z,1003.17
2016-07-20T11:35:40.717Z,1003.12
2016-07-20T11:36:40.752Z,1003.1
2016-07-20T11:37:40.819Z,1003.06
2016-07-20T11:38:40.724Z,1003.04
2016-07-20T11:39:40.724Z,1003.01
2016-07-20T11:40:40.643Z,1002.96
2016-07-20T11:41:40.677Z,1002.99
2016-07-20T11:42:40.648Z,1002.98
2016-07-20T11:43:40.679Z,1002.99
2016-07-20T11:44:40.604Z,1002.94
2016-07-20T11:45:40.811Z,1002.92
2016-07-20T11:46:40.667Z,1002.92
2016-07-20T11:47:40.569Z,1002.87
2016-07-20T11:48:40.780Z,1002.85
2016-07-20T11:49:40.870Z,1002.83
2016-07-20T11:50:40.709Z,1002.82
2016-07-20T11:51:40.667Z,1002.81
2016-07-20T11:52:40.884Z,1002.78
2016-07-20T11:53:40.810Z,1002.76
2016-07-20T11:54:40.712Z,1002.79
2016-07-20T11:55:40.716Z,1002.81
2016-07-20T11:56:40.743Z,1002.75
2016-07-20T11:57:40.676Z,1002.74
2016-07-20T11:58:40.732Z,1002.72
2016-07-20T11:59:40.733Z,1002.69
2016-07-20T12:00:40.814Z,1002.72
2016-07-20T12:01:40.650Z,1002.69
2016-07-20T12:02:40.646Z,1002.72
2016-07-20T12:03:40.710Z,1002.69
2016-07-20T12:04:40.713Z,1002.67
2016-07-20T12:05:40.662Z,1002.65
2016-07-20T12:06:40.667Z,1002.6
2016-07-20T12:07:40.673Z,1002.59
2016-07-20T12:08:40.735Z,1002.57
2016-07-20T12:09:40.683Z,1002.61